createdAt,value
2022-11-17T00:02:13.332Z,99.90
2022-11-17T00:04:41.294Z,99.90
2022-11-17T00:07:09.265Z,99.90
2022-11-17T00:09:37.674Z,99.90
2022-11-17T00:12:28.409Z,99.90
2022-11-17T00:14:59.398Z,99.90
2022-11-17T00:17:27.228Z,99.90
2022-11-17T00:20:24.604Z,99.90
2022-11-17T00:22:52.475Z,99.90
2022-11-17T00:25:20.487Z,99.90
2022-11-17T00:27:48.333Z,99.90
2022-11-17T00:30:36.244Z,99.90
2022-11-17T00:33:23.538Z,99.90
2022-11-17T00:35:54.607Z,99.90
2022-11-17T00:38:22.493Z,99.90
2022-11-17T00:40:50.515Z,99.90
2022-11-17T00:43:18.339Z,99.90
2022-11-17T00:45:46.252Z,99.90
2022-11-17T00:48:14.165Z,99.90
2022-11-17T00:50:42.043Z,99.90
2022-11-17T00:53:10.198Z,99.90
2022-11-17T00:55:38.063Z,99.90
2022-11-17T00:58:07.915Z,99.90
2022-11-17T01:00:35.705Z,99.90
2022-11-17T01:03:03.566Z,99.90
2022-11-17T01:05:33.216Z,99.90
2022-11-17T01:08:01.147Z,99.90
2022-11-17T01:10:29.076Z,99.90
2022-11-17T01:12:56.934Z,99.90
2022-11-17T01:15:24.855Z,99.90
2022-11-17T01:17:52.679Z,99.90
2022-11-17T01:20:20.927Z,99.90
2022-11-17T01:22:48.721Z,99.90
2022-11-17T01:25:16.645Z,99.90
2022-11-17T01:27:44.566Z,99.90
2022-11-17T01:30:12.862Z,99.90
2022-11-17T01:32:40.912Z,99.90
2022-11-17T01:35:09.136Z,99.90
2022-11-17T01:37:37.479Z,99.90
2022-11-17T01:40:05.633Z,99.90
2022-11-17T01:42:33.615Z,99.90
2022-11-17T01:45:02.705Z,99.90
2022-11-17T01:47:37.195Z,99.90
2022-11-17T01:50:08.327Z,99.90
2022-11-17T01:52:37.314Z,99.90
2022-11-17T01:55:07.233Z,99.90
2022-11-17T01:57:39.286Z,99.90
2022-11-17T02:00:08.415Z,99.90
2022-11-17T02:02:38.033Z,99.90
2022-11-17T02:05:10.589Z,99.90
2022-11-17T02:07:39.516Z,99.90
2022-11-17T02:10:07.784Z,99.90
2022-11-17T02:12:36.652Z,99.90
2022-11-17T02:15:05.464Z,99.90
2022-11-17T02:17:43.230Z,99.90
2022-11-17T02:20:19.283Z,99.90
2022-11-17T02:22:47.605Z,99.90
2022-11-17T02:25:34.023Z,99.90
2022-11-17T02:28:13.968Z,99.90
2022-11-17T02:31:00.336Z,99.90
2022-11-17T02:33:43.175Z,99.90
2022-11-17T02:36:18.361Z,99.90
2022-11-17T02:39:04.525Z,99.90
2022-11-17T02:41:46.293Z,99.90
2022-11-17T02:44:18.185Z,99.90
2022-11-17T02:46:48.835Z,99.90
2022-11-17T02:49:20.168Z,99.90
2022-11-17T02:51:52.179Z,99.90
2022-11-17T02:54:21.631Z,99.90
2022-11-17T02:56:49.414Z,99.90
2022-11-17T02:59:18.478Z,99.90
2022-11-17T03:01:58.604Z,99.90
2022-11-17T03:04:30.734Z,99.90
2022-11-17T03:06:58.649Z,99.90
2022-11-17T03:09:49.251Z,99.90
2022-11-17T03:12:22.483Z,99.90
2022-11-17T03:14:59.774Z,99.90
2022-11-17T03:17:46.395Z,99.90
2022-11-17T03:20:18.695Z,99.90
2022-11-17T03:22:53.292Z,99.90
2022-11-17T03:25:23.398Z,99.90
2022-11-17T03:27:54.027Z,99.90
2022-11-17T03:30:23.572Z,99.90
2022-11-17T03:32:54.246Z,99.90
2022-11-17T03:35:24.810Z,99.90
2022-11-17T03:37:55.084Z,99.90
2022-11-17T03:40:25.528Z,99.90
2022-11-17T03:42:56.139Z,99.90
2022-11-17T03:45:28.350Z,99.90
2022-11-17T03:48:17.821Z,99.90
2022-11-17T03:50:54.908Z,99.90
2022-11-17T03:53:23.432Z,99.90
2022-11-17T03:56:09.505Z,99.90
2022-11-17T03:58:40.698Z,99.90
2022-11-17T04:01:09.575Z,99.90
2022-11-17T04:03:38.463Z,99.90
2022-11-17T04:06:06.674Z,99.90
2022-11-17T04:08:34.721Z,99.90
2022-11-17T04:11:21.157Z,99.90
2022-11-17T04:14:07.613Z,99.90
2022-11-17T04:16:35.500Z,99.90
2022-11-17T04:19:03.355Z,99.90
2022-11-17T04:21:31.235Z,99.90
2022-11-17T04:24:00.561Z,99.90
2022-11-17T04:26:47.058Z,99.90
2022-11-17T04:29:14.962Z,99.90
2022-11-17T04:31:42.903Z,99.90
2022-11-17T04:34:10.842Z,99.90
2022-11-17T04:36:43.647Z,99.90
2022-11-17T04:39:13.649Z,99.90
2022-11-17T04:41:54.287Z,99.90
2022-11-17T04:44:26.160Z,99.90
2022-11-17T04:46:55.265Z,99.90
2022-11-17T04:49:23.831Z,99.90
2022-11-17T04:51:52.237Z,99.90
2022-11-17T04:54:21.324Z,99.90
2022-11-17T04:56:49.395Z,99.90
2022-11-17T04:59:17.694Z,99.90
2022-11-17T05:01:45.905Z,99.90
2022-11-17T05:04:15.493Z,99.90
2022-11-17T05:06:44.630Z,99.90
2022-11-17T05:09:17.069Z,99.90
2022-11-17T05:12:07.891Z,99.90
2022-11-17T05:14:35.746Z,99.90
2022-11-17T05:17:11.178Z,99.90
2022-11-17T05:19:46.582Z,99.90
2022-11-17T05:22:34.706Z,99.90
2022-11-17T05:25:03.026Z,99.90
2022-11-17T05:27:31.023Z,99.90
2022-11-17T05:29:58.834Z,99.90
2022-11-17T05:32:27.029Z,99.90
2022-11-17T05:34:54.876Z,99.90
2022-11-17T05:37:23.057Z,99.90
2022-11-17T05:39:50.925Z,99.90
2022-11-17T05:42:19.041Z,99.90
2022-11-17T05:44:48.836Z,99.90
2022-11-17T05:47:16.852Z,99.90
2022-11-17T05:49:44.692Z,99.90
2022-11-17T05:52:12.582Z,99.90
2022-11-17T05:54:40.736Z,99.90
2022-11-17T05:57:17.191Z,99.90
2022-11-17T05:59:55.270Z,99.90
2022-11-17T06:02:26.261Z,99.90
2022-11-17T06:04:54.200Z,99.90
2022-11-17T06:07:22.255Z,99.90
2022-11-17T06:09:51.349Z,99.90
2022-11-17T06:12:19.352Z,99.90
2022-11-17T06:14:47.214Z,99.90
2022-11-17T06:17:30.199Z,99.90
2022-11-17T06:20:03.270Z,99.90
2022-11-17T06:22:31.770Z,99.90
2022-11-17T06:25:00.465Z,99.90
2022-11-17T06:27:29.489Z,99.90
2022-11-17T06:30:00.552Z,99.90
2022-11-17T06:32:28.566Z,99.90
2022-11-17T06:34:56.853Z,99.90
2022-11-17T06:37:25.097Z,99.90
2022-11-17T06:39:53.253Z,99.90
2022-11-17T06:42:41.257Z,99.90
2022-11-17T06:45:09.706Z,99.90
2022-11-17T06:47:37.667Z,99.90
2022-11-17T06:50:05.877Z,99.90
2022-11-17T06:52:34.095Z,99.90
2022-11-17T06:55:02.004Z,99.90
2022-11-17T06:57:30.205Z,99.90
2022-11-17T06:59:58.140Z,99.90
2022-11-17T07:02:26.128Z,99.90
2022-11-17T07:04:54.406Z,99.90
2022-11-17T07:07:22.344Z,99.90
2022-11-17T07:09:50.293Z,99.90
2022-11-17T07:12:18.344Z,99.90
2022-11-17T07:14:46.294Z,99.90
2022-11-17T07:17:14.254Z,99.90
2022-11-17T07:19:44.921Z,99.90
2022-11-17T07:22:12.805Z,99.90
2022-11-17T07:24:40.800Z,99.90
2022-11-17T07:27:08.784Z,99.90
2022-11-17T07:29:36.670Z,99.90
2022-11-17T07:32:04.763Z,99.90
2022-11-17T07:34:32.625Z,99.90
2022-11-17T07:37:00.596Z,99.90
2022-11-17T07:39:28.610Z,99.90
2022-11-17T07:41:56.672Z,99.90
2022-11-17T07:44:24.569Z,99.90
2022-11-17T07:46:52.584Z,99.90
2022-11-17T07:49:20.512Z,99.90
2022-11-17T07:51:48.411Z,99.90
2022-11-17T07:54:16.444Z,99.90
2022-11-17T07:56:44.616Z,99.90
2022-11-17T07:59:17.137Z,99.90
2022-11-17T08:01:48.206Z,99.90
2022-11-17T08:04:16.398Z,99.90
2022-11-17T08:06:44.522Z,99.90
2022-11-17T08:09:14.603Z,99.90
2022-11-17T08:11:42.526Z,99.90
2022-11-17T08:14:11.104Z,99.90
2022-11-17T08:16:39.010Z,99.90
2022-11-17T08:19:06.992Z,99.90
2022-11-17T08:21:36.846Z,99.90
2022-11-17T08:24:05.007Z,99.90
2022-11-17T08:26:33.219Z,99.90
2022-11-17T08:29:02.243Z,99.90
2022-11-17T08:31:30.308Z,99.90
2022-11-17T08:33:58.326Z,99.90
2022-11-17T08:36:26.528Z,99.90
2022-11-17T08:38:54.492Z,99.90
2022-11-17T08:41:22.468Z,99.90
2022-11-17T08:43:51.138Z,99.90
2022-11-17T08:46:19.269Z,99.90
2022-11-17T08:48:48.980Z,99.90
2022-11-17T08:51:20.314Z,99.90
2022-11-17T08:53:48.277Z,99.90
2022-11-17T08:56:16.339Z,99.90
2022-11-17T08:58:45.117Z,99.90
2022-11-17T09:01:16.116Z,99.90
2022-11-17T09:03:46.372Z,99.90
2022-11-17T09:06:15.576Z,99.90
2022-11-17T09:08:56.195Z,99.90
2022-11-17T09:11:25.275Z,99.90
2022-11-17T09:13:53.212Z,99.90
2022-11-17T09:16:21.234Z,99.90
2022-11-17T09:18:49.412Z,99.90
2022-11-17T09:21:17.873Z,99.90
2022-11-17T09:23:46.763Z,99.90
2022-11-17T09:26:17.258Z,99.90
2022-11-17T09:28:46.213Z,99.90
2022-11-17T09:31:21.845Z,99.90
2022-11-17T09:33:51.897Z,99.90
2022-11-17T09:36:19.986Z,99.90
2022-11-17T09:38:48.849Z,99.40
2022-11-17T09:41:16.816Z,98.70
2022-11-17T09:43:51.962Z,98.50
2022-11-17T09:46:49.279Z,98.90
2022-11-17T09:49:36.316Z,92.90
2022-11-17T09:52:11.015Z,81.30
2022-11-17T09:54:47.171Z,69.90
2022-11-17T09:57:21.733Z,64.30
2022-11-17T09:59:56.859Z,62.30
2022-11-17T10:02:25.155Z,60.80
2022-11-17T10:04:53.256Z,59.40
2022-11-17T10:07:22.878Z,58.90
2022-11-17T10:09:52.731Z,59.40
2022-11-17T10:12:34.289Z,60.10
2022-11-17T10:15:18.811Z,61.80
2022-11-17T10:17:47.688Z,60.00
2022-11-17T10:20:17.630Z,58.70
2022-11-17T10:22:46.328Z,58.10
2022-11-17T10:25:35.424Z,57.80
2022-11-17T10:28:04.215Z,56.20
2022-11-17T10:30:32.166Z,55.90
2022-11-17T10:33:02.210Z,55.60
2022-11-17T10:35:30.992Z,54.50
2022-11-17T10:38:07.079Z,53.80
2022-11-17T10:40:41.149Z,53.50
2022-11-17T10:43:13.552Z,52.00
2022-11-17T10:45:49.687Z,51.80
2022-11-17T10:48:17.753Z,50.80
2022-11-17T10:50:56.782Z,50.20
2022-11-17T10:53:30.494Z,49.50
2022-11-17T10:56:01.395Z,48.90
2022-11-17T10:58:30.419Z,48.90
2022-11-17T11:01:01.717Z,47.50
2022-11-17T11:03:34.548Z,47.20
2022-11-17T11:06:06.078Z,46.90
2022-11-17T11:08:40.519Z,47.10
2022-11-17T11:11:12.563Z,46.10
2022-11-17T11:13:51.687Z,44.90
2022-11-17T11:16:19.606Z,45.30
2022-11-17T11:18:49.327Z,43.60
2022-11-17T11:21:21.647Z,44.70
2022-11-17T11:23:50.518Z,44.10
2022-11-17T11:26:38.221Z,45.20
2022-11-17T11:29:12.400Z,44.60
2022-11-17T11:31:59.341Z,44.00
2022-11-17T11:34:27.822Z,44.50
2022-11-17T11:37:08.909Z,44.70
2022-11-17T11:39:43.249Z,44.30
2022-11-17T11:42:18.903Z,42.90
2022-11-17T11:44:52.892Z,43.80
2022-11-17T11:47:27.316Z,43.70
2022-11-17T11:50:15.761Z,42.70
2022-11-17T11:52:48.054Z,43.70
2022-11-17T11:55:21.637Z,42.50
2022-11-17T11:57:56.924Z,43.30
2022-11-17T12:00:25.126Z,42.80
2022-11-17T12:03:03.395Z,42.80
2022-11-17T12:05:40.194Z,43.10
2022-11-17T12:08:13.994Z,43.80
2022-11-17T12:11:00.551Z,43.30
2022-11-17T12:13:28.704Z,43.30
2022-11-17T12:16:19.966Z,42.90
2022-11-17T12:18:47.955Z,42.50
2022-11-17T12:21:23.795Z,43.40
2022-11-17T12:24:14.519Z,43.20
2022-11-17T12:26:42.891Z,41.40
2022-11-17T12:29:29.560Z,41.80
2022-11-17T12:32:01.875Z,42.20
2022-11-17T12:34:36.136Z,41.40
2022-11-17T12:37:16.363Z,41.30
2022-11-17T12:39:54.636Z,40.70
2022-11-17T12:42:24.766Z,40.90
2022-11-17T12:45:09.811Z,40.00
2022-11-17T12:47:39.891Z,40.30
2022-11-17T12:50:07.862Z,40.50
2022-11-17T12:52:54.698Z,39.80
2022-11-17T12:55:32.190Z,40.30
2022-11-17T12:58:19.679Z,38.60
2022-11-17T13:01:09.674Z,40.30
2022-11-17T13:03:37.832Z,40.60
2022-11-17T13:06:34.267Z,39.30
2022-11-17T13:09:00.461Z,40.60
2022-11-17T13:11:29.040Z,41.60
2022-11-17T13:14:10.804Z,43.50
2022-11-17T13:16:44.806Z,44.30
2022-11-17T13:19:29.423Z,45.40
2022-11-17T13:22:14.420Z,46.00
2022-11-17T13:24:51.290Z,46.00
2022-11-17T13:27:26.931Z,46.20
2022-11-17T13:30:13.328Z,47.60
2022-11-17T13:32:42.028Z,48.10
2022-11-17T13:35:23.727Z,47.50
2022-11-17T13:38:21.877Z,48.40
2022-11-17T13:40:51.531Z,48.70
2022-11-17T13:43:21.204Z,48.10
2022-11-17T13:45:52.071Z,50.20
2022-11-17T13:48:33.481Z,49.80
2022-11-17T13:51:20.375Z,50.40
2022-11-17T13:53:51.122Z,50.90
2022-11-17T13:56:24.270Z,51.40
2022-11-17T13:58:52.527Z,52.70
2022-11-17T14:01:25.391Z,54.60
2022-11-17T14:03:53.441Z,56.00
2022-11-17T14:06:21.346Z,55.80
2022-11-17T14:09:05.936Z,55.40
2022-11-17T14:11:33.943Z,56.70
2022-11-17T14:14:01.937Z,58.40
2022-11-17T14:16:36.719Z,59.00
2022-11-17T14:19:06.177Z,58.90
2022-11-17T14:21:34.207Z,58.50
2022-11-17T14:24:03.889Z,60.10
2022-11-17T14:26:32.182Z,61.40
2022-11-17T14:29:03.254Z,61.90
2022-11-17T14:31:31.631Z,63.00
2022-11-17T14:34:00.136Z,63.80
2022-11-17T14:36:28.250Z,65.10
2022-11-17T14:38:56.167Z,66.20
2022-11-17T14:41:24.058Z,67.30
2022-11-17T14:43:52.151Z,68.40
2022-11-17T14:46:21.544Z,69.50
2022-11-17T14:48:49.529Z,70.60
2022-11-17T14:51:17.633Z,71.20
2022-11-17T14:53:46.597Z,72.50
2022-11-17T14:56:15.684Z,73.50
2022-11-17T14:58:43.618Z,74.80
2022-11-17T15:01:13.400Z,75.70
2022-11-17T15:03:41.446Z,76.60
2022-11-17T15:06:12.071Z,77.30
2022-11-17T15:08:42.017Z,78.20
2022-11-17T15:11:14.028Z,79.20
2022-11-17T15:13:42.548Z,79.90
2022-11-17T15:16:10.971Z,80.80
2022-11-17T15:18:38.927Z,81.50
2022-11-17T15:21:08.230Z,82.00
2022-11-17T15:23:39.982Z,82.60
2022-11-17T15:26:09.437Z,82.60
2022-11-17T15:28:37.466Z,83.10
2022-11-17T15:31:09.396Z,83.50
2022-11-17T15:33:37.723Z,84.10
2022-11-17T15:36:06.000Z,84.70
2022-11-17T15:38:34.018Z,85.10
2022-11-17T15:41:01.852Z,85.80
2022-11-17T15:43:31.129Z,87.00
2022-11-17T15:46:06.497Z,87.50
2022-11-17T15:48:35.112Z,88.10
2022-11-17T15:51:05.909Z,88.60
2022-11-17T15:53:34.818Z,89.40
2022-11-17T15:56:03.807Z,90.00
2022-11-17T15:58:31.939Z,90.30
2022-11-17T16:01:16.350Z,90.80
2022-11-17T16:03:45.424Z,91.10
2022-11-17T16:06:13.326Z,91.40
2022-11-17T16:08:41.315Z,91.40
2022-11-17T16:11:10.052Z,91.60
2022-11-17T16:13:38.017Z,91.90
2022-11-17T16:16:06.308Z,92.30
2022-11-17T16:18:34.990Z,92.60
2022-11-17T16:21:04.922Z,92.90
2022-11-17T16:23:40.128Z,93.00
2022-11-17T16:26:08.503Z,93.30
2022-11-17T16:28:37.058Z,93.60
2022-11-17T16:31:14.772Z,93.70
2022-11-17T16:33:57.235Z,93.80
2022-11-17T16:36:30.001Z,94.10
2022-11-17T16:39:13.321Z,94.30
2022-11-17T16:41:43.387Z,94.80
2022-11-17T16:44:12.806Z,95.20
2022-11-17T16:46:45.308Z,95.40
2022-11-17T16:49:14.698Z,95.70
2022-11-17T16:51:53.012Z,95.70
2022-11-17T16:54:21.046Z,96.00
2022-11-17T16:56:49.117Z,96.20
2022-11-17T16:59:17.452Z,96.70
2022-11-17T17:01:45.916Z,97.10
2022-11-17T17:04:14.092Z,97.80
2022-11-17T17:06:42.840Z,98.30
2022-11-17T17:09:11.660Z,98.40
2022-11-17T17:11:39.875Z,98.50
2022-11-17T17:14:09.415Z,98.40
2022-11-17T17:16:37.872Z,98.90
2022-11-17T17:19:06.924Z,99.40
2022-11-17T17:21:37.619Z,99.80
2022-11-17T17:24:06.123Z,99.90
2022-11-17T17:26:35.329Z,99.90
2022-11-17T17:29:04.442Z,99.90
2022-11-17T17:31:36.841Z,99.90
2022-11-17T17:34:06.620Z,99.90
2022-11-17T17:36:35.015Z,99.90
2022-11-17T17:39:03.176Z,99.90
2022-11-17T17:41:32.528Z,99.90
2022-11-17T17:44:01.597Z,99.90
2022-11-17T17:46:30.175Z,99.90
2022-11-17T17:48:58.688Z,99.90
2022-11-17T17:51:27.683Z,99.90
2022-11-17T17:53:56.391Z,99.90
2022-11-17T17:56:24.338Z,99.90
2022-11-17T17:58:54.190Z,99.90
2022-11-17T18:01:29.287Z,99.90
2022-11-17T18:04:09.099Z,99.90
2022-11-17T18:06:41.453Z,99.90
2022-11-17T18:09:10.969Z,99.90
2022-11-17T18:11:46.172Z,99.90
2022-11-17T18:14:14.290Z,99.90
2022-11-17T18:16:42.154Z,99.90
2022-11-17T18:19:14.208Z,99.90
2022-11-17T18:21:42.990Z,99.90
2022-11-17T18:24:11.300Z,99.90
2022-11-17T18:26:42.415Z,99.90
2022-11-17T18:29:15.452Z,99.90
2022-11-17T18:31:46.911Z,99.90
2022-11-17T18:34:16.489Z,99.90
2022-11-17T18:36:44.744Z,99.90
2022-11-17T18:39:12.642Z,99.90
2022-11-17T18:41:40.962Z,99.90
2022-11-17T18:44:11.596Z,99.90
2022-11-17T18:46:39.593Z,99.90
2022-11-17T18:49:10.762Z,99.90
2022-11-17T18:51:39.079Z,99.90
2022-11-17T18:54:08.262Z,99.90
2022-11-17T18:56:37.063Z,99.90
2022-11-17T18:59:12.271Z,99.90
2022-11-17T19:01:41.626Z,99.90
2022-11-17T19:04:10.488Z,99.90
2022-11-17T19:06:38.467Z,99.90
2022-11-17T19:09:07.146Z,99.90
2022-11-17T19:11:35.152Z,99.90
2022-11-17T19:14:04.497Z,99.90
2022-11-17T19:16:32.979Z,99.90
2022-11-17T19:19:00.885Z,99.90
2022-11-17T19:21:29.933Z,99.90
2022-11-17T19:23:58.978Z,99.90
2022-11-17T19:26:30.982Z,99.90
2022-11-17T19:29:00.595Z,99.90
2022-11-17T19:31:28.671Z,99.90
2022-11-17T19:33:57.198Z,99.90
2022-11-17T19:36:26.695Z,99.90
2022-11-17T19:38:55.495Z,99.90
2022-11-17T19:41:24.865Z,99.90
2022-11-17T19:43:54.066Z,99.90
2022-11-17T19:46:22.653Z,99.90
2022-11-17T19:48:51.071Z,99.90
2022-11-17T19:51:20.643Z,99.90
2022-11-17T19:53:49.105Z,99.90
2022-11-17T19:56:17.125Z,99.90
2022-11-17T19:58:45.343Z,99.90
2022-11-17T20:01:21.425Z,99.90
2022-11-17T20:03:49.514Z,99.90
2022-11-17T20:06:19.132Z,99.90
2022-11-17T20:08:47.476Z,99.90
2022-11-17T20:11:20.062Z,99.90
2022-11-17T20:13:48.999Z,99.90
2022-11-17T20:16:18.438Z,99.90
2022-11-17T20:18:51.314Z,99.90
2022-11-17T20:21:19.474Z,99.90
2022-11-17T20:23:47.522Z,99.90
2022-11-17T20:26:16.701Z,99.90
2022-11-17T20:28:45.079Z,99.90
2022-11-17T20:31:14.285Z,99.90
2022-11-17T20:33:42.777Z,99.90
2022-11-17T20:36:12.265Z,99.90
2022-11-17T20:38:40.420Z,99.90
2022-11-17T20:41:08.907Z,99.90
2022-11-17T20:43:36.952Z,99.90
2022-11-17T20:46:05.007Z,99.90
2022-11-17T20:48:35.621Z,99.90
2022-11-17T20:51:05.341Z,99.90
2022-11-17T20:53:33.543Z,99.90
2022-11-17T20:56:02.859Z,99.90
2022-11-17T20:58:30.808Z,99.90
2022-11-17T21:00:59.027Z,99.90
2022-11-17T21:03:27.288Z,99.90
2022-11-17T21:05:58.788Z,99.90
2022-11-17T21:08:28.183Z,99.90
2022-11-17T21:10:57.129Z,99.90
2022-11-17T21:13:25.285Z,99.90
2022-11-17T21:16:10.283Z,99.90
2022-11-17T21:18:39.998Z,99.90
2022-11-17T21:21:09.339Z,99.90
2022-11-17T21:23:38.420Z,99.90
2022-11-17T21:26:07.194Z,99.90
2022-11-17T21:28:36.198Z,99.90
2022-11-17T21:31:08.374Z,99.90
2022-11-17T21:33:36.931Z,99.90
2022-11-17T21:36:06.072Z,99.90
2022-11-17T21:38:34.150Z,99.90
2022-11-17T21:41:03.221Z,99.90
2022-11-17T21:43:31.613Z,99.90
2022-11-17T21:46:07.196Z,99.90
2022-11-17T21:48:35.694Z,99.90
2022-11-17T21:51:07.423Z,99.90
2022-11-17T21:53:35.394Z,99.90
2022-11-17T21:56:04.101Z,99.90
2022-11-17T21:58:32.371Z,99.90
2022-11-17T22:01:06.907Z,99.90
2022-11-17T22:03:35.138Z,99.90
2022-11-17T22:06:08.059Z,99.90
2022-11-17T22:08:39.915Z,99.90
2022-11-17T22:11:09.430Z,99.90
2022-11-17T22:13:37.598Z,99.90
2022-11-17T22:16:06.959Z,99.90
2022-11-17T22:18:34.900Z,99.90
2022-11-17T22:21:02.840Z,99.90
2022-11-17T22:23:30.938Z,99.90
2022-11-17T22:25:59.992Z,99.90
2022-11-17T22:28:27.932Z,99.90
2022-11-17T22:30:56.078Z,99.90
2022-11-17T22:33:24.195Z,99.90
2022-11-17T22:35:52.318Z,99.90
2022-11-17T22:38:20.269Z,99.90
2022-11-17T22:40:48.150Z,99.90
2022-11-17T22:43:16.153Z,99.90
2022-11-17T22:45:44.102Z,99.90
2022-11-17T22:48:11.987Z,99.90
2022-11-17T22:50:39.911Z,99.90
2022-11-17T22:53:07.767Z,99.90
2022-11-17T22:55:35.852Z,99.90
2022-11-17T22:58:04.082Z,99.90
2022-11-17T23:00:32.783Z,99.90
2022-11-17T23:03:00.801Z,99.90
2022-11-17T23:05:28.893Z,99.90
2022-11-17T23:07:56.765Z,99.90
2022-11-17T23:10:24.813Z,99.90
2022-11-17T23:12:52.768Z,99.90
2022-11-17T23:15:20.881Z,99.90
2022-11-17T23:17:51.709Z,99.90
2022-11-17T23:20:19.553Z,99.90
2022-11-17T23:22:47.723Z,99.90
2022-11-17T23:25:15.677Z,99.90
2022-11-17T23:27:43.542Z,99.90
2022-11-17T23:30:11.760Z,99.90
2022-11-17T23:32:39.703Z,99.90
2022-11-17T23:35:07.874Z,99.90
2022-11-17T23:37:35.766Z,99.90
2022-11-17T23:40:03.850Z,99.90
2022-11-17T23:42:32.845Z,99.90
2022-11-17T23:45:01.487Z,99.90
2022-11-17T23:47:29.417Z,99.90
2022-11-17T23:49:57.276Z,99.90
2022-11-17T23:52:25.552Z,99.90
2022-11-17T23:54:53.527Z,99.90
2022-11-17T23:57:21.652Z,99.90
2022-11-17T23:59:49.669Z,99.90
